Aérodrome :
LOGIN :

S'inscrire | Disclaimer

   EN    FR    IT 

 










Légende :    VFR   VFR Marginal   IFR   IFR Intensif   IFR Très Intensif
Visi : 
Plafond : 
>= 8 km
>= 3000ft
5 à 8 km
1000 à 3000 ft
1500m à 5 km
500 à 1000 ft
800 à 1500m
200 à 500 ft
< 800m
< 200 ft
Symboles :   Orages  Brouillard  Fortes neiges  Fortes précipitations  Vent > 20 kt
SIGMETs :   Divers  Orages  Givrage  Turbulence  Onde Orograph.  Cendres Volcan.







- Altitude de l'aérodrome : 63 ft
- Code IATA : BZM


EHWO - Woensdrecht Airbase

DERNIER METAR :
  • 152025Z AUTO 36003KT 320V050 9999 OVC230 22/13 Q1014 BLU

METARs EXPIRÉS :
  • 151955Z AUTO 36003KT 320V030 9999 OVC240 23/13 Q1014 BLU
  • 151925Z AUTO 01005KT 300V040 9999 OVC230 24/12 Q1014 BLU
  • 151855Z AUTO 35008KT 310V040 9999 OVC240 26/13 Q1014 BLU
  • 151825Z AUTO 36008KT 320V050 9999 OVC250 27/12 Q1014 BLU
  • 151755Z AUTO 02007KT 310V060 9999 SCT260 28/09 Q1014 BLU

Prévision TAF périmée.
Pas de NOTAMs connus pour ce terrain.



MET'MAP, la Météo Aéronautique d'un coup d'oeil ! - Copyright ORBIFLY Décembre 2007 - Disclaimer

ORBIFLY MET'MAP TEAM :

Programmation & Développement : Alexandra Zaïnal
Conception & Développement : Baudouin d'Aumeries
Co-Programmation & Développement : Marc-Olivier Méhu
Soutien technique & logistique : Manuel Goepfert

Contact : metmap@orbifly.com




SOURCES & CREDITS :

   NOAA